sensor_id;sensor_type;location;lat;lon;timestamp;temperature;humidity
50738;DHT22;36703;48.154;17.126;2023-03-01T00:01:20;9.30;38.00
50738;DHT22;36703;48.154;17.126;2023-03-01T00:05:23;9.20;38.10
50738;DHT22;36703;48.154;17.126;2023-03-01T00:09:24;9.20;38.10
50738;DHT22;36703;48.154;17.126;2023-03-01T00:13:25;9.10;38.10
50738;DHT22;36703;48.154;17.126;2023-03-01T00:17:27;9.10;38.10
50738;DHT22;36703;48.154;17.126;2023-03-01T00:21:29;9.20;38.30
50738;DHT22;36703;48.154;17.126;2023-03-01T00:25:31;9.20;38.30
50738;DHT22;36703;48.154;17.126;2023-03-01T00:29:33;9.20;38.30
50738;DHT22;36703;48.154;17.126;2023-03-01T00:33:34;9.20;38.30
50738;DHT22;36703;48.154;17.126;2023-03-01T00:37:36;9.20;38.30
50738;DHT22;36703;48.154;17.126;2023-03-01T00:41:37;9.30;38.40
50738;DHT22;36703;48.154;17.126;2023-03-01T00:45:39;9.20;38.50
50738;DHT22;36703;48.154;17.126;2023-03-01T00:49:41;9.20;38.50
50738;DHT22;36703;48.154;17.126;2023-03-01T00:53:43;9.20;38.70
50738;DHT22;36703;48.154;17.126;2023-03-01T00:57:45;9.30;38.70
50738;DHT22;36703;48.154;17.126;2023-03-01T01:01:47;9.40;38.70
50738;DHT22;36703;48.154;17.126;2023-03-01T01:05:48;9.40;38.70
50738;DHT22;36703;48.154;17.126;2023-03-01T01:09:50;9.40;38.70
50738;DHT22;36703;48.154;17.126;2023-03-01T01:13:52;9.50;38.50
50738;DHT22;36703;48.154;17.126;2023-03-01T01:17:54;9.50;39.20
50738;DHT22;36703;48.154;17.126;2023-03-01T01:21:56;9.60;38.60
50738;DHT22;36703;48.154;17.126;2023-03-01T01:26:02;9.60;38.60
50738;DHT22;36703;48.154;17.126;2023-03-01T01:30:05;9.50;38.60
50738;DHT22;36703;48.154;17.126;2023-03-01T01:34:09;9.50;38.70
50738;DHT22;36703;48.154;17.126;2023-03-01T01:38:15;9.50;38.80
50738;DHT22;36703;48.154;17.126;2023-03-01T01:42:18;9.50;38.70
50738;DHT22;36703;48.154;17.126;2023-03-01T01:46:30;9.50;38.70
50738;DHT22;36703;48.154;17.126;2023-03-01T01:50:34;9.20;38.80
50738;DHT22;36703;48.154;17.126;2023-03-01T01:58:47;9.10;39.00
50738;DHT22;36703;48.154;17.126;2023-03-01T02:02:51;9.10;39.00
50738;DHT22;36703;48.154;17.126;2023-03-01T02:07:17;9.10;38.90
50738;DHT22;36703;48.154;17.126;2023-03-01T02:11:21;9.10;38.90
50738;DHT22;36703;48.154;17.126;2023-03-01T02:15:23;9.10;38.70
50738;DHT22;36703;48.154;17.126;2023-03-01T02:19:36;9.10;38.70
50738;DHT22;36703;48.154;17.126;2023-03-01T02:28:30;9.20;38.70
50738;DHT22;36703;48.154;17.126;2023-03-01T02:32:36;9.30;38.70
50738;DHT22;36703;48.154;17.126;2023-03-01T02:36:45;9.20;38.50
50738;DHT22;36703;48.154;17.126;2023-03-01T02:40:50;9.20;38.70
50738;DHT22;36703;48.154;17.126;2023-03-01T02:44:52;9.20;38.70
50738;DHT22;36703;48.154;17.126;2023-03-01T02:48:57;9.10;38.70
50738;DHT22;36703;48.154;17.126;2023-03-01T02:53:27;9.20;38.90
50738;DHT22;36703;48.154;17.126;2023-03-01T02:57:35;9.10;38.90
50738;DHT22;36703;48.154;17.126;2023-03-01T03:01:38;9.10;38.90
50738;DHT22;36703;48.154;17.126;2023-03-01T03:05:42;9.10;38.90
50738;DHT22;36703;48.154;17.126;2023-03-01T03:09:43;9.10;39.00
50738;DHT22;36703;48.154;17.126;2023-03-01T03:13:45;9.10;38.90
50738;DHT22;36703;48.154;17.126;2023-03-01T03:17:51;9.10;38.90
50738;DHT22;36703;48.154;17.126;2023-03-01T03:21:53;9.10;38.80
50738;DHT22;36703;48.154;17.126;2023-03-01T03:25:54;9.10;38.80
50738;DHT22;36703;48.154;17.126;2023-03-01T03:29:55;9.00;38.90
50738;DHT22;36703;48.154;17.126;2023-03-01T03:33:57;9.00;38.90
50738;DHT22;36703;48.154;17.126;2023-03-01T03:38:03;9.00;38.90
50738;DHT22;36703;48.154;17.126;2023-03-01T03:42:07;9.00;39.00
50738;DHT22;36703;48.154;17.126;2023-03-01T03:46:10;9.00;38.90
50738;DHT22;36703;48.154;17.126;2023-03-01T03:50:15;9.00;38.90
50738;DHT22;36703;48.154;17.126;2023-03-01T03:54:18;9.00;38.90
50738;DHT22;36703;48.154;17.126;2023-03-01T03:58:20;9.10;38.90
50738;DHT22;36703;48.154;17.126;2023-03-01T04:02:23;9.10;38.80
50738;DHT22;36703;48.154;17.126;2023-03-01T04:06:25;9.10;38.80
50738;DHT22;36703;48.154;17.126;2023-03-01T04:10:27;9.10;38.80
50738;DHT22;36703;48.154;17.126;2023-03-01T04:14:29;9.00;38.90
50738;DHT22;36703;48.154;17.126;2023-03-01T04:18:31;9.00;38.90
50738;DHT22;36703;48.154;17.126;2023-03-01T04:22:32;8.90;39.00
50738;DHT22;36703;48.154;17.126;2023-03-01T04:26:34;8.90;39.00
50738;DHT22;36703;48.154;17.126;2023-03-01T04:30:37;9.00;39.00
50738;DHT22;36703;48.154;17.126;2023-03-01T04:34:39;9.00;39.00
50738;DHT22;36703;48.154;17.126;2023-03-01T04:38:41;9.00;39.00
50738;DHT22;36703;48.154;17.126;2023-03-01T04:42:43;9.00;39.00
50738;DHT22;36703;48.154;17.126;2023-03-01T04:46:45;9.00;39.00
50738;DHT22;36703;48.154;17.126;2023-03-01T04:50:46;9.10;39.00
50738;DHT22;36703;48.154;17.126;2023-03-01T04:54:48;9.10;39.00
50738;DHT22;36703;48.154;17.126;2023-03-01T04:58:49;9.20;39.10
50738;DHT22;36703;48.154;17.126;2023-03-01T05:02:57;9.20;39.10
50738;DHT22;36703;48.154;17.126;2023-03-01T05:07:00;9.30;38.90
50738;DHT22;36703;48.154;17.126;2023-03-01T05:11:02;9.20;38.90
50738;DHT22;36703;48.154;17.126;2023-03-01T05:15:04;9.10;38.90
50738;DHT22;36703;48.154;17.126;2023-03-01T05:19:08;9.10;38.80
50738;DHT22;36703;48.154;17.126;2023-03-01T05:23:16;9.20;38.80
50738;DHT22;36703;48.154;17.126;2023-03-01T05:27:17;9.20;38.80
50738;DHT22;36703;48.154;17.126;2023-03-01T05:31:19;9.20;38.80
50738;DHT22;36703;48.154;17.126;2023-03-01T05:35:20;9.10;38.70
50738;DHT22;36703;48.154;17.126;2023-03-01T05:39:25;9.10;38.80
50738;DHT22;36703;48.154;17.126;2023-03-01T05:43:30;9.10;38.90
50738;DHT22;36703;48.154;17.126;2023-03-01T05:47:35;9.20;39.00
50738;DHT22;36703;48.154;17.126;2023-03-01T05:51:37;9.20;38.80
50738;DHT22;36703;48.154;17.126;2023-03-01T05:55:38;9.20;39.40
50738;DHT22;36703;48.154;17.126;2023-03-01T05:59:40;9.30;38.90
50738;DHT22;36703;48.154;17.126;2023-03-01T06:03:41;9.30;38.70
50738;DHT22;36703;48.154;17.126;2023-03-01T06:07:43;9.30;38.70
50738;DHT22;36703;48.154;17.126;2023-03-01T06:11:45;9.30;38.60
50738;DHT22;36703;48.154;17.126;2023-03-01T06:15:46;9.30;38.60
50738;DHT22;36703;48.154;17.126;2023-03-01T06:19:48;9.40;38.50
50738;DHT22;36703;48.154;17.126;2023-03-01T06:23:49;9.40;38.50
50738;DHT22;36703;48.154;17.126;2023-03-01T06:27:51;9.40;38.60
50738;DHT22;36703;48.154;17.126;2023-03-01T06:31:53;9.40;38.50
50738;DHT22;36703;48.154;17.126;2023-03-01T06:35:55;9.30;38.60
50738;DHT22;36703;48.154;17.126;2023-03-01T06:39:57;9.30;38.60
50738;DHT22;36703;48.154;17.126;2023-03-01T06:43:59;9.20;38.70
50738;DHT22;36703;48.154;17.126;2023-03-01T06:48:05;9.30;38.70
50738;DHT22;36703;48.154;17.126;2023-03-01T06:52:07;9.30;38.60
50738;DHT22;36703;48.154;17.126;2023-03-01T06:56:08;9.40;38.60
50738;DHT22;36703;48.154;17.126;2023-03-01T07:00:10;9.50;38.60
50738;DHT22;36703;48.154;17.126;2023-03-01T07:04:13;9.50;38.60
50738;DHT22;36703;48.154;17.126;2023-03-01T07:08:15;9.50;38.60
50738;DHT22;36703;48.154;17.126;2023-03-01T07:12:16;9.50;38.50
50738;DHT22;36703;48.154;17.126;2023-03-01T07:16:18;9.60;38.50
50738;DHT22;36703;48.154;17.126;2023-03-01T07:20:21;9.60;38.50
50738;DHT22;36703;48.154;17.126;2023-03-01T07:24:25;9.70;38.40
50738;DHT22;36703;48.154;17.126;2023-03-01T07:28:27;9.60;38.40
50738;DHT22;36703;48.154;17.126;2023-03-01T07:32:29;9.60;38.40
50738;DHT22;36703;48.154;17.126;2023-03-01T07:36:30;9.60;38.40
50738;DHT22;36703;48.154;17.126;2023-03-01T07:40:32;9.80;38.40
50738;DHT22;36703;48.154;17.126;2023-03-01T07:44:33;9.80;38.20
50738;DHT22;36703;48.154;17.126;2023-03-01T07:48:35;9.90;38.10
50738;DHT22;36703;48.154;17.126;2023-03-01T07:52:37;9.90;38.10
50738;DHT22;36703;48.154;17.126;2023-03-01T07:56:38;9.90;38.10
50738;DHT22;36703;48.154;17.126;2023-03-01T08:00:41;9.90;38.10
50738;DHT22;36703;48.154;17.126;2023-03-01T08:04:43;9.90;38.10
50738;DHT22;36703;48.154;17.126;2023-03-01T08:08:45;9.90;38.10
50738;DHT22;36703;48.154;17.126;2023-03-01T08:12:46;10.00;38.10
50738;DHT22;36703;48.154;17.126;2023-03-01T08:16:48;10.00;38.10
50738;DHT22;36703;48.154;17.126;2023-03-01T08:20:50;10.00;38.20
50738;DHT22;36703;48.154;17.126;2023-03-01T08:24:52;9.90;38.30
50738;DHT22;36703;48.154;17.126;2023-03-01T08:28:53;10.00;38.30
50738;DHT22;36703;48.154;17.126;2023-03-01T08:32:55;10.10;38.80
50738;DHT22;36703;48.154;17.126;2023-03-01T08:36:56;10.30;38.20
50738;DHT22;36703;48.154;17.126;2023-03-01T08:41:02;10.30;38.10
50738;DHT22;36703;48.154;17.126;2023-03-01T08:45:05;10.50;38.10
50738;DHT22;36703;48.154;17.126;2023-03-01T08:49:11;10.60;38.00
50738;DHT22;36703;48.154;17.126;2023-03-01T08:53:14;10.60;38.10
50738;DHT22;36703;48.154;17.126;2023-03-01T08:57:16;10.70;38.10
50738;DHT22;36703;48.154;17.126;2023-03-01T09:01:18;10.90;38.00
50738;DHT22;36703;48.154;17.126;2023-03-01T09:05:20;11.20;37.80
50738;DHT22;36703;48.154;17.126;2023-03-01T09:09:22;11.60;37.60
50738;DHT22;36703;48.154;17.126;2023-03-01T09:13:23;11.90;37.40
50738;DHT22;36703;48.154;17.126;2023-03-01T09:17:25;11.90;37.10
50738;DHT22;36703;48.154;17.126;2023-03-01T09:21:27;12.00;37.10
50738;DHT22;36703;48.154;17.126;2023-03-01T09:25:29;12.10;36.90
50738;DHT22;36703;48.154;17.126;2023-03-01T09:29:30;12.40;36.80
50738;DHT22;36703;48.154;17.126;2023-03-01T09:33:33;12.80;36.50
50738;DHT22;36703;48.154;17.126;2023-03-01T09:37:36;12.80;36.10
50738;DHT22;36703;48.154;17.126;2023-03-01T09:46:09;13.10;35.90
50738;DHT22;36703;48.154;17.126;2023-03-01T09:50:19;13.30;35.80
50738;DHT22;36703;48.154;17.126;2023-03-01T09:54:22;13.50;35.60
50738;DHT22;36703;48.154;17.126;2023-03-01T09:58:29;13.90;35.30
50738;DHT22;36703;48.154;17.126;2023-03-01T10:02:49;14.40;34.80
50738;DHT22;36703;48.154;17.126;2023-03-01T10:07:11;15.30;34.20
50738;DHT22;36703;48.154;17.126;2023-03-01T10:11:23;16.10;33.20
50738;DHT22;36703;48.154;17.126;2023-03-01T10:15:43;16.70;32.60
50738;DHT22;36703;48.154;17.126;2023-03-01T10:19:49;17.40;31.90
50738;DHT22;36703;48.154;17.126;2023-03-01T10:23:51;17.80;31.60
50738;DHT22;36703;48.154;17.126;2023-03-01T10:28:05;18.30;31.30
50738;DHT22;36703;48.154;17.126;2023-03-01T10:32:14;18.70;30.40
50738;DHT22;36703;48.154;17.126;2023-03-01T10:36:16;19.10;30.00
50738;DHT22;36703;48.154;17.126;2023-03-01T10:40:17;19.90;29.60
50738;DHT22;36703;48.154;17.126;2023-03-01T10:44:41;20.30;29.00
50738;DHT22;36703;48.154;17.126;2023-03-01T10:48:44;20.70;28.50
50738;DHT22;36703;48.154;17.126;2023-03-01T10:53:00;21.00;28.30
50738;DHT22;36703;48.154;17.126;2023-03-01T10:57:04;21.10;27.70
50738;DHT22;36703;48.154;17.126;2023-03-01T11:01:30;21.20;27.60
50738;DHT22;36703;48.154;17.126;2023-03-01T11:05:35;21.60;27.00
50738;DHT22;36703;48.154;17.126;2023-03-01T11:09:37;21.60;27.00
50738;DHT22;36703;48.154;17.126;2023-03-01T11:17:58;21.50;26.80
50738;DHT22;36703;48.154;17.126;2023-03-01T11:22:13;20.80;27.20
50738;DHT22;36703;48.154;17.126;2023-03-01T11:26:17;19.70;27.40
50738;DHT22;36703;48.154;17.126;2023-03-01T11:35:04;18.60;28.40
50738;DHT22;36703;48.154;17.126;2023-03-01T11:39:26;18.50;28.70
50738;DHT22;36703;48.154;17.126;2023-03-01T11:44:31;18.40;28.80
50738;DHT22;36703;48.154;17.126;2023-03-01T11:52:50;17.30;29.50
50738;DHT22;36703;48.154;17.126;2023-03-01T12:01:36;17.00;30.00
50738;DHT22;36703;48.154;17.126;2023-03-01T12:11:02;16.50;30.40
50738;DHT22;36703;48.154;17.126;2023-03-01T12:19:40;16.20;30.90
50738;DHT22;36703;48.154;17.126;2023-03-01T12:28:55;15.60;31.60
50738;DHT22;36703;48.154;17.126;2023-03-01T12:33:10;15.50;32.00
50738;DHT22;36703;48.154;17.126;2023-03-01T12:42:04;15.60;32.10
50738;DHT22;36703;48.154;17.126;2023-03-01T12:46:36;15.40;32.60
50738;DHT22;36703;48.154;17.126;2023-03-01T12:51:05;15.30;32.70
50738;DHT22;36703;48.154;17.126;2023-03-01T12:55:43;15.20;33.40
50738;DHT22;36703;48.154;17.126;2023-03-01T13:00:11;15.20;34.20
50738;DHT22;36703;48.154;17.126;2023-03-01T13:09:22;15.20;34.00
50738;DHT22;36703;48.154;17.126;2023-03-01T13:13:28;15.30;34.10
50738;DHT22;36703;48.154;17.126;2023-03-01T13:17:33;15.40;34.00
50738;DHT22;36703;48.154;17.126;2023-03-01T13:21:43;15.30;34.00
50738;DHT22;36703;48.154;17.126;2023-03-01T13:26:16;15.40;34.20
50738;DHT22;36703;48.154;17.126;2023-03-01T13:34:40;15.50;34.40
50738;DHT22;36703;48.154;17.126;2023-03-01T13:38:48;15.50;34.30
50738;DHT22;36703;48.154;17.126;2023-03-01T13:42:56;15.70;34.20
50738;DHT22;36703;48.154;17.126;2023-03-01T13:51:10;15.80;33.90
50738;DHT22;36703;48.154;17.126;2023-03-01T14:00:05;15.70;34.10
50738;DHT22;36703;48.154;17.126;2023-03-01T14:04:21;15.60;34.20
50738;DHT22;36703;48.154;17.126;2023-03-01T14:08:27;15.80;34.10
50738;DHT22;36703;48.154;17.126;2023-03-01T14:17:20;16.20;33.60
50738;DHT22;36703;48.154;17.126;2023-03-01T14:21:26;16.50;33.40
50738;DHT22;36703;48.154;17.126;2023-03-01T14:25:28;16.60;33.30
50738;DHT22;36703;48.154;17.126;2023-03-01T14:29:37;16.60;33.20
50738;DHT22;36703;48.154;17.126;2023-03-01T14:33:39;16.60;33.20
50738;DHT22;36703;48.154;17.126;2023-03-01T14:37:42;16.60;33.30
50738;DHT22;36703;48.154;17.126;2023-03-01T14:41:44;16.40;33.40
50738;DHT22;36703;48.154;17.126;2023-03-01T14:45:49;16.10;33.60
50738;DHT22;36703;48.154;17.126;2023-03-01T14:49:59;16.10;33.80
50738;DHT22;36703;48.154;17.126;2023-03-01T14:54:16;16.00;34.00
50738;DHT22;36703;48.154;17.126;2023-03-01T14:58:24;15.90;34.20
50738;DHT22;36703;48.154;17.126;2023-03-01T15:02:28;15.70;34.20
50738;DHT22;36703;48.154;17.126;2023-03-01T15:06:33;15.60;34.40
50738;DHT22;36703;48.154;17.126;2023-03-01T15:10:36;15.50;34.60
50738;DHT22;36703;48.154;17.126;2023-03-01T15:14:42;15.40;34.60
50738;DHT22;36703;48.154;17.126;2023-03-01T15:18:50;15.40;34.70
50738;DHT22;36703;48.154;17.126;2023-03-01T15:22:53;15.40;34.80
50738;DHT22;36703;48.154;17.126;2023-03-01T15:27:00;15.40;34.90
50738;DHT22;36703;48.154;17.126;2023-03-01T15:31:22;15.30;35.10
50738;DHT22;36703;48.154;17.126;2023-03-01T15:35:45;15.10;35.30
50738;DHT22;36703;48.154;17.126;2023-03-01T15:39:56;15.10;35.50
50738;DHT22;36703;48.154;17.126;2023-03-01T15:44:00;15.10;35.50
50738;DHT22;36703;48.154;17.126;2023-03-01T15:48:19;15.10;35.60
50738;DHT22;36703;48.154;17.126;2023-03-01T15:52:39;14.90;35.70
50738;DHT22;36703;48.154;17.126;2023-03-01T15:56:41;14.80;35.90
50738;DHT22;36703;48.154;17.126;2023-03-01T16:00:45;14.90;36.00
50738;DHT22;36703;48.154;17.126;2023-03-01T16:04:49;14.70;35.90
50738;DHT22;36703;48.154;17.126;2023-03-01T16:08:51;14.70;36.00
50738;DHT22;36703;48.154;17.126;2023-03-01T16:12:53;14.70;36.20
50738;DHT22;36703;48.154;17.126;2023-03-01T16:16:55;14.80;36.30
50738;DHT22;36703;48.154;17.126;2023-03-01T16:20:57;14.70;36.30
50738;DHT22;36703;48.154;17.126;2023-03-01T16:24:58;14.60;36.40
50738;DHT22;36703;48.154;17.126;2023-03-01T16:29:00;14.60;36.60
50738;DHT22;36703;48.154;17.126;2023-03-01T16:33:01;14.50;36.70
50738;DHT22;36703;48.154;17.126;2023-03-01T16:37:03;14.50;36.90
50738;DHT22;36703;48.154;17.126;2023-03-01T16:41:05;14.50;37.10
50738;DHT22;36703;48.154;17.126;2023-03-01T16:45:09;14.50;37.10
50738;DHT22;36703;48.154;17.126;2023-03-01T16:49:10;14.40;36.90
50738;DHT22;36703;48.154;17.126;2023-03-01T16:53:12;14.40;36.90
50738;DHT22;36703;48.154;17.126;2023-03-01T16:57:14;14.40;36.90
50738;DHT22;36703;48.154;17.126;2023-03-01T17:01:18;14.40;37.00
50738;DHT22;36703;48.154;17.126;2023-03-01T17:05:21;14.40;37.10
50738;DHT22;36703;48.154;17.126;2023-03-01T17:09:24;14.30;37.10
50738;DHT22;36703;48.154;17.126;2023-03-01T17:13:26;14.30;37.20
50738;DHT22;36703;48.154;17.126;2023-03-01T17:17:27;14.20;37.80
50738;DHT22;36703;48.154;17.126;2023-03-01T17:21:29;14.20;37.30
50738;DHT22;36703;48.154;17.126;2023-03-01T17:25:31;14.10;37.40
50738;DHT22;36703;48.154;17.126;2023-03-01T17:29:33;14.10;37.50
50738;DHT22;36703;48.154;17.126;2023-03-01T17:33:35;14.10;37.50
50738;DHT22;36703;48.154;17.126;2023-03-01T17:37:38;14.00;37.70
50738;DHT22;36703;48.154;17.126;2023-03-01T17:41:40;13.90;37.80
50738;DHT22;36703;48.154;17.126;2023-03-01T17:45:42;13.90;38.00
50738;DHT22;36703;48.154;17.126;2023-03-01T17:49:48;13.80;38.10
50738;DHT22;36703;48.154;17.126;2023-03-01T17:53:50;13.70;38.20
50738;DHT22;36703;48.154;17.126;2023-03-01T17:57:51;13.70;38.30
50738;DHT22;36703;48.154;17.126;2023-03-01T18:01:53;13.70;38.30
50738;DHT22;36703;48.154;17.126;2023-03-01T18:05:54;13.70;38.30
50738;DHT22;36703;48.154;17.126;2023-03-01T18:09:56;13.70;38.20
50738;DHT22;36703;48.154;17.126;2023-03-01T18:13:57;13.60;38.40
50738;DHT22;36703;48.154;17.126;2023-03-01T18:17:59;13.50;38.40
50738;DHT22;36703;48.154;17.126;2023-03-01T18:22:00;13.50;38.50
50738;DHT22;36703;48.154;17.126;2023-03-01T18:26:06;13.50;38.50
50738;DHT22;36703;48.154;17.126;2023-03-01T18:30:09;13.60;38.50
50738;DHT22;36703;48.154;17.126;2023-03-01T18:34:11;13.50;38.60
50738;DHT22;36703;48.154;17.126;2023-03-01T18:38:13;13.50;38.60
50738;DHT22;36703;48.154;17.126;2023-03-01T18:42:14;13.50;38.70
50738;DHT22;36703;48.154;17.126;2023-03-01T18:46:16;13.50;38.90
50738;DHT22;36703;48.154;17.126;2023-03-01T18:50:20;13.40;39.00
50738;DHT22;36703;48.154;17.126;2023-03-01T18:54:21;13.40;39.00
50738;DHT22;36703;48.154;17.126;2023-03-01T18:58:23;13.30;39.10
50738;DHT22;36703;48.154;17.126;2023-03-01T19:02:24;13.20;39.20
50738;DHT22;36703;48.154;17.126;2023-03-01T19:06:29;13.20;39.20
50738;DHT22;36703;48.154;17.126;2023-03-01T19:10:31;13.10;39.30
50738;DHT22;36703;48.154;17.126;2023-03-01T19:14:33;13.00;39.50
50738;DHT22;36703;48.154;17.126;2023-03-01T19:18:36;12.80;39.60
50738;DHT22;36703;48.154;17.126;2023-03-01T19:22:40;12.80;39.70
50738;DHT22;36703;48.154;17.126;2023-03-01T19:26:41;12.80;39.80
50738;DHT22;36703;48.154;17.126;2023-03-01T19:30:43;12.90;39.80
50738;DHT22;36703;48.154;17.126;2023-03-01T19:34:44;12.90;39.80
50738;DHT22;36703;48.154;17.126;2023-03-01T19:38:47;12.90;39.80
50738;DHT22;36703;48.154;17.126;2023-03-01T19:42:48;12.80;39.90
50738;DHT22;36703;48.154;17.126;2023-03-01T19:46:55;12.60;39.90
50738;DHT22;36703;48.154;17.126;2023-03-01T19:50:59;12.40;40.20
50738;DHT22;36703;48.154;17.126;2023-03-01T19:55:01;12.30;40.40
50738;DHT22;36703;48.154;17.126;2023-03-01T19:59:03;12.30;40.60
50738;DHT22;36703;48.154;17.126;2023-03-01T20:03:06;12.30;40.50
50738;DHT22;36703;48.154;17.126;2023-03-01T20:07:08;12.30;40.50
50738;DHT22;36703;48.154;17.126;2023-03-01T20:11:10;12.40;40.40
50738;DHT22;36703;48.154;17.126;2023-03-01T20:15:13;12.50;40.50
50738;DHT22;36703;48.154;17.126;2023-03-01T20:19:15;12.50;40.50
50738;DHT22;36703;48.154;17.126;2023-03-01T20:23:17;12.50;41.10
50738;DHT22;36703;48.154;17.126;2023-03-01T20:27:19;12.50;40.60
50738;DHT22;36703;48.154;17.126;2023-03-01T20:31:22;12.40;40.60
50738;DHT22;36703;48.154;17.126;2023-03-01T20:35:29;12.30;40.70
50738;DHT22;36703;48.154;17.126;2023-03-01T20:39:32;12.10;40.90
50738;DHT22;36703;48.154;17.126;2023-03-01T20:43:35;12.00;41.10
50738;DHT22;36703;48.154;17.126;2023-03-01T20:47:36;12.00;41.20
50738;DHT22;36703;48.154;17.126;2023-03-01T20:51:38;11.90;41.20
50738;DHT22;36703;48.154;17.126;2023-03-01T20:55:39;11.80;41.40
50738;DHT22;36703;48.154;17.126;2023-03-01T20:59:41;11.70;41.50
50738;DHT22;36703;48.154;17.126;2023-03-01T21:03:43;11.60;41.70
50738;DHT22;36703;48.154;17.126;2023-03-01T21:07:45;11.50;41.90
50738;DHT22;36703;48.154;17.126;2023-03-01T21:11:49;11.50;41.80
50738;DHT22;36703;48.154;17.126;2023-03-01T21:15:54;11.60;41.80
50738;DHT22;36703;48.154;17.126;2023-03-01T21:20:05;11.70;41.80
50738;DHT22;36703;48.154;17.126;2023-03-01T21:24:07;11.80;41.70
50738;DHT22;36703;48.154;17.126;2023-03-01T21:28:10;11.70;41.70
50738;DHT22;36703;48.154;17.126;2023-03-01T21:32:13;11.60;41.80
50738;DHT22;36703;48.154;17.126;2023-03-01T21:36:15;11.60;41.90
50738;DHT22;36703;48.154;17.126;2023-03-01T21:40:19;11.60;42.00
50738;DHT22;36703;48.154;17.126;2023-03-01T21:44:21;11.60;42.00
50738;DHT22;36703;48.154;17.126;2023-03-01T21:48:23;11.70;42.10
50738;DHT22;36703;48.154;17.126;2023-03-01T21:52:25;11.70;42.10
50738;DHT22;36703;48.154;17.126;2023-03-01T21:56:29;11.70;42.10
50738;DHT22;36703;48.154;17.126;2023-03-01T22:00:31;11.70;42.30
50738;DHT22;36703;48.154;17.126;2023-03-01T22:04:33;11.70;42.20
50738;DHT22;36703;48.154;17.126;2023-03-01T22:08:34;11.70;42.30
50738;DHT22;36703;48.154;17.126;2023-03-01T22:12:36;11.60;42.30
50738;DHT22;36703;48.154;17.126;2023-03-01T22:16:39;11.70;42.40
50738;DHT22;36703;48.154;17.126;2023-03-01T22:20:42;11.60;42.40
50738;DHT22;36703;48.154;17.126;2023-03-01T22:24:44;11.60;42.50
50738;DHT22;36703;48.154;17.126;2023-03-01T22:28:46;11.60;42.60
50738;DHT22;36703;48.154;17.126;2023-03-01T22:32:47;11.60;42.60
50738;DHT22;36703;48.154;17.126;2023-03-01T22:36:49;11.60;42.60
50738;DHT22;36703;48.154;17.126;2023-03-01T22:40:57;11.60;42.60
50738;DHT22;36703;48.154;17.126;2023-03-01T22:45:03;11.60;42.70
50738;DHT22;36703;48.154;17.126;2023-03-01T22:49:05;11.60;42.70
50738;DHT22;36703;48.154;17.126;2023-03-01T22:53:07;11.50;42.70
50738;DHT22;36703;48.154;17.126;2023-03-01T22:57:08;11.50;42.80
50738;DHT22;36703;48.154;17.126;2023-03-01T23:01:16;11.40;43.00
50738;DHT22;36703;48.154;17.126;2023-03-01T23:05:19;11.30;43.00
50738;DHT22;36703;48.154;17.126;2023-03-01T23:09:25;11.30;43.10
50738;DHT22;36703;48.154;17.126;2023-03-01T23:13:30;11.30;43.10
50738;DHT22;36703;48.154;17.126;2023-03-01T23:17:32;11.40;43.20
50738;DHT22;36703;48.154;17.126;2023-03-01T23:21:34;11.30;43.10
50738;DHT22;36703;48.154;17.126;2023-03-01T23:25:36;11.30;43.80
50738;DHT22;36703;48.154;17.126;2023-03-01T23:29:38;11.30;43.20
50738;DHT22;36703;48.154;17.126;2023-03-01T23:33:40;11.30;43.20
50738;DHT22;36703;48.154;17.126;2023-03-01T23:37:43;11.20;43.20
50738;DHT22;36703;48.154;17.126;2023-03-01T23:41:46;11.20;43.30
50738;DHT22;36703;48.154;17.126;2023-03-01T23:45:51;11.10;43.40
50738;DHT22;36703;48.154;17.126;2023-03-01T23:49:54;11.10;44.00
50738;DHT22;36703;48.154;17.126;2023-03-01T23:53:59;11.00;43.50
50738;DHT22;36703;48.154;17.126;2023-03-01T23:58:02;11.10;43.60
